Donnington, United Kingdom
Current Conditions -  °F | °C
As of 1:39 AM on Tuesday 21 Oct 2014 (Local Time) from EGVN Reporting Station
Overcast Overcast  
Wind Chill: 13°   Ceiling: 4000
Heat Index: 13°   Visibility: 6mi
Dew Point: 10°   Wind: 12mph
Humidity: 82%   Direction: 210°SSW
Pressure: 29.74"   Gusts: NA
Location:  51.95°N, 1.72°W
Report Text: EGVN 210039Z 21010KT 9999 SCT020 OVC040 13/10 Q1007 WHT TEMPO SCT012 GRN
Loading
Personal Weather Stations






























Interactive Weather Map
Tropical Storm Tracking
New forecast layout! Learn more

10-Day Weather Forecast

Advertisements
Track Severe Weather on mobile